Time;durP1;ratioP1;P1;durP2;ratioP2;P2;SDS_P1;SDS_P2;PMS_P1;PMS_P2;Temp;Humidity;BMP_temperature;BMP_pressure;BME280_temperature;BME280_humidity;BME280_pressure;Samples;Min_cycle;Max_cycle;Signal;HPM_P1;HPM_P2
2022/09/23 00:00:30;;;;;;;16.80;7.60;;;;;;;;;;5034672;28;20044;-64
2022/09/23 00:03:01;;;;;;;15.55;6.85;;;;;;;;;;4999962;28;20492;-64
2022/09/23 00:05:27;;;;;;;16.25;7.80;;;;;;;;;;5019937;28;20039;-71
2022/09/23 00:07:53;;;;;;;19.48;8.60;;;;;;;;;;5040067;28;20028;-72
2022/09/23 00:10:19;;;;;;;17.98;7.90;;;;;;;;;;5039039;28;20886;-73
2022/09/23 00:12:44;;;;;;;18.75;7.50;;;;;;;;;;5038595;28;20045;-71
2022/09/23 00:15:10;;;;;;;16.17;7.60;;;;;;;;;;5039477;28;20044;-72
2022/09/23 00:17:36;;;;;;;16.90;7.78;;;;;;;;;;5037517;28;20103;-71
2022/09/23 00:20:03;;;;;;;18.08;7.90;;;;;;;;;;5037621;28;20032;-73
2022/09/23 00:22:29;;;;;;;15.27;7.07;;;;;;;;;;5038938;28;20652;-71
2022/09/23 00:24:54;;;;;;;14.15;7.65;;;;;;;;;;5039388;28;20032;-72
2022/09/23 00:27:22;;;;;;;17.00;7.80;;;;;;;;;;5037527;28;20040;-71
2022/09/23 00:29:47;;;;;;;15.05;7.80;;;;;;;;;;5040270;28;20800;-71
2022/09/23 00:32:13;;;;;;;17.45;8.85;;;;;;;;;;5039108;28;20159;-71
2022/09/23 00:34:38;;;;;;;18.58;8.70;;;;;;;;;;5040010;28;20025;-72
2022/09/23 00:37:04;;;;;;;17.25;8.82;;;;;;;;;;5042105;28;22289;-72
2022/09/23 00:39:29;;;;;;;16.20;9.10;;;;;;;;;;5041098;28;20480;-71
2022/09/23 00:41:55;;;;;;;17.02;9.10;;;;;;;;;;5040629;28;20042;-71
2022/09/23 00:44:38;;;;;;;17.52;9.95;;;;;;;;;;5023190;28;20460;-72
2022/09/23 00:47:04;;;;;;;16.52;9.10;;;;;;;;;;5039241;28;20032;-71
2022/09/23 00:49:29;;;;;;;17.42;8.93;;;;;;;;;;5027233;28;20051;-72
2022/09/23 00:51:57;;;;;;;14.85;8.55;;;;;;;;;;5031210;28;20076;-72
2022/09/23 00:54:24;;;;;;;19.90;8.80;;;;;;;;;;5040224;28;20125;-71
2022/09/23 00:56:50;;;;;;;17.35;8.38;;;;;;;;;;5040569;28;20039;-71
2022/09/23 00:59:15;;;;;;;18.95;8.85;;;;;;;;;;5040291;28;20040;-71
2022/09/23 01:01:43;;;;;;;22.52;9.35;;;;;;;;;;5041350;28;20028;-71
2022/09/23 01:04:08;;;;;;;24.33;9.07;;;;;;;;;;5039355;28;20125;-71
2022/09/23 01:06:34;;;;;;;18.35;8.85;;;;;;;;;;5038238;28;20564;-71
2022/09/23 01:08:59;;;;;;;15.77;8.75;;;;;;;;;;5038222;28;20032;-72
2022/09/23 01:11:33;;;;;;;22.83;9.02;;;;;;;;;;5026730;28;20127;-71
2022/09/23 01:14:03;;;;;;;20.30;8.32;;;;;;;;;;5015657;28;20071;-72
2022/09/23 01:16:37;;;;;;;19.88;7.75;;;;;;;;;;5039251;28;20036;-72
2022/09/23 01:19:07;;;;;;;20.20;9.15;;;;;;;;;;5040465;28;20024;-73
2022/09/23 01:21:47;;;;;;;17.80;8.55;;;;;;;;;;5038807;28;20036;-71
2022/09/23 01:24:33;;;;;;;14.43;7.95;;;;;;;;;;5026562;28;20042;-72
2022/09/23 01:27:18;;;;;;;22.45;9.55;;;;;;;;;;5039899;28;20052;-72
2022/09/23 01:29:46;;;;;;;22.23;10.60;;;;;;;;;;5040272;28;20063;-71
2022/09/23 01:32:26;;;;;;;19.70;10.05;;;;;;;;;;5039426;28;20092;-72
2022/09/23 01:35:02;;;;;;;21.83;9.82;;;;;;;;;;5039588;28;20921;-72
2022/09/23 01:37:34;;;;;;;19.17;8.60;;;;;;;;;;5039296;28;20036;-73
2022/09/23 01:40:18;;;;;;;21.15;8.88;;;;;;;;;;5039129;28;20045;-71
2022/09/23 01:42:43;;;;;;;16.35;8.65;;;;;;;;;;5039634;28;20074;-72
2022/09/23 01:45:20;;;;;;;16.27;8.15;;;;;;;;;;5014843;28;20033;-70
2022/09/23 01:48:09;;;;;;;14.32;8.68;;;;;;;;;;5039117;28;20032;-71
2022/09/23 01:53:23;;;;;;;14.00;8.10;;;;;;;;;;5039478;28;20024;-71
2022/09/23 01:55:50;;;;;;;17.92;8.55;;;;;;;;;;5039207;28;20953;-71
2022/09/23 01:58:20;;;;;;;17.60;8.88;;;;;;;;;;5040235;28;20128;-71
2022/09/23 02:00:51;;;;;;;14.77;7.70;;;;;;;;;;5039928;28;20033;-72
2022/09/23 02:03:18;;;;;;;20.00;9.43;;;;;;;;;;5039590;28;20764;-72
2022/09/23 02:05:49;;;;;;;21.45;10.48;;;;;;;;;;5039726;28;20029;-72
2022/09/23 02:08:19;;;;;;;21.50;9.95;;;;;;;;;;5038688;28;20864;-73
2022/09/23 02:10:55;;;;;;;20.52;9.70;;;;;;;;;;5038129;28;20047;-72
2022/09/23 02:13:30;;;;;;;23.38;9.63;;;;;;;;;;5039218;28;20036;-72
2022/09/23 02:15:58;;;;;;;19.88;9.90;;;;;;;;;;5038172;28;20089;-72
2022/09/23 02:18:40;;;;;;;18.10;9.93;;;;;;;;;;5039107;28;20125;-73
2022/09/23 02:21:08;;;;;;;21.25;9.63;;;;;;;;;;5038554;28;20035;-73
2022/09/23 02:23:42;;;;;;;23.92;10.10;;;;;;;;;;5038553;28;20816;-71
2022/09/23 02:26:15;;;;;;;17.63;9.75;;;;;;;;;;5038114;28;20046;-73
2022/09/23 02:28:59;;;;;;;21.10;10.35;;;;;;;;;;5037476;28;20032;-72
2022/09/23 02:31:31;;;;;;;19.13;9.88;;;;;;;;;;5039159;28;20046;-72
2022/09/23 02:34:16;;;;;;;20.05;9.85;;;;;;;;;;5038409;28;20282;-74
2022/09/23 02:37:00;;;;;;;23.02;10.55;;;;;;;;;;5038946;28;20032;-72
2022/09/23 02:39:29;;;;;;;26.90;12.10;;;;;;;;;;5039051;28;21228;-72
2022/09/23 02:41:58;;;;;;;35.42;13.95;;;;;;;;;;5038021;28;20036;-72
2022/09/23 02:44:24;;;;;;;31.85;14.75;;;;;;;;;;5038625;28;20147;-71
2022/09/23 02:46:52;;;;;;;38.17;14.77;;;;;;;;;;5026565;28;20693;-72
2022/09/23 02:49:22;;;;;;;35.53;16.15;;;;;;;;;;5037192;28;20039;-72
2022/09/23 02:51:50;;;;;;;35.03;15.25;;;;;;;;;;5037794;28;20055;-72
2022/09/23 02:54:21;;;;;;;29.17;14.55;;;;;;;;;;5054175;28;20927;-72
2022/09/23 02:56:48;;;;;;;33.97;14.20;;;;;;;;;;5038412;28;20370;-73
2022/09/23 02:59:19;;;;;;;30.65;13.70;;;;;;;;;;5037253;28;20036;-73
2022/09/23 03:01:51;;;;;;;;;;;;;;;;;;5038560;28;20060;-73
2022/09/23 03:04:25;;;;;;;28.90;14.15;;;;;;;;;;5037748;28;20104;-72
2022/09/23 03:06:53;;;;;;;36.90;16.10;;;;;;;;;;5038150;28;20136;-73
2022/09/23 03:09:21;;;;;;;39.67;16.33;;;;;;;;;;5038500;28;20871;-72
2022/09/23 03:11:50;;;;;;;36.38;16.00;;;;;;;;;;5036351;28;20040;-73
2022/09/23 03:14:16;;;;;;;36.95;16.42;;;;;;;;;;5019823;28;20040;-72
2022/09/23 03:16:46;;;;;;;44.75;16.92;;;;;;;;;;5038308;28;20059;-73
2022/09/23 03:19:12;;;;;;;36.40;16.50;;;;;;;;;;5039191;28;20032;-71
2022/09/23 03:21:42;;;;;;;38.58;15.70;;;;;;;;;;5038030;28;20082;-73
2022/09/23 03:24:08;;;;;;;44.30;16.95;;;;;;;;;;5037310;28;20036;-73
2022/09/23 03:26:35;;;;;;;50.70;18.77;;;;;;;;;;5038433;28;20032;-73
2022/09/23 03:29:02;;;;;;;47.33;17.90;;;;;;;;;;5037138;28;20058;-72
2022/09/23 03:31:28;;;;;;;53.15;18.50;;;;;;;;;;5037538;28;20056;-72
2022/09/23 03:33:55;;;;;;;40.67;17.10;;;;;;;;;;5037528;28;21145;-72
2022/09/23 03:36:50;;;;;;;40.50;16.23;;;;;;;;;;5038078;28;22247;-72
2022/09/23 03:39:17;;;;;;;;;;;;;;;;;;5026418;28;20037;-71
2022/09/23 03:41:49;;;;;;;31.60;14.25;;;;;;;;;;5043255;28;19931;-72
2022/09/23 03:44:18;;;;;;;42.60;17.17;;;;;;;;;;5041152;28;20086;-72
2022/09/23 03:46:48;;;;;;;38.45;15.43;;;;;;;;;;5041364;28;20742;-73
2022/09/23 03:49:38;;;;;;;39.30;16.73;;;;;;;;;;5041946;28;20028;-71
2022/09/23 03:52:03;;;;;;;44.25;17.48;;;;;;;;;;5034428;28;20051;-72
2022/09/23 03:54:28;;;;;;;38.80;17.10;;;;;;;;;;5042436;28;20063;-72
2022/09/23 03:56:56;;;;;;;37.80;16.17;;;;;;;;;;5041596;28;20036;-72
2022/09/23 03:59:24;;;;;;;35.75;16.33;;;;;;;;;;5041621;28;20062;-72
2022/09/23 04:01:49;;;;;;;36.65;17.20;;;;;;;;;;5041953;28;21249;-73
2022/09/23 04:04:15;;;;;;;48.78;17.55;;;;;;;;;;5041751;28;20033;-72
2022/09/23 04:06:41;;;;;;;36.80;16.52;;;;;;;;;;5039543;28;20042;-71
2022/09/23 04:09:06;;;;;;;44.30;17.42;;;;;;;;;;5032623;28;20788;-72
2022/09/23 04:11:32;;;;;;;43.53;18.77;;;;;;;;;;5041720;28;20052;-71
2022/09/23 04:13:57;;;;;;;46.55;19.38;;;;;;;;;;5040289;28;20669;-72
2022/09/23 04:16:23;;;;;;;40.42;19.35;;;;;;;;;;5040973;28;20036;-72
2022/09/23 04:18:49;;;;;;;35.45;18.58;;;;;;;;;;5039980;28;20091;-72
2022/09/23 04:21:15;;;;;;;38.05;19.52;;;;;;;;;;5041159;28;20093;-71
2022/09/23 04:23:42;;;;;;;36.40;17.65;;;;;;;;;;5021652;28;20024;-72
2022/09/23 04:26:08;;;;;;;34.65;16.05;;;;;;;;;;5041524;28;20040;-73
2022/09/23 04:28:33;;;;;;;38.03;17.15;;;;;;;;;;5040440;28;20580;-74
2022/09/23 04:31:02;;;;;;;33.85;16.98;;;;;;;;;;5040282;28;20117;-73
2022/09/23 04:33:27;;;;;;;36.92;17.10;;;;;;;;;;5040080;28;20032;-72
2022/09/23 04:35:54;;;;;;;36.35;17.50;;;;;;;;;;5039968;28;20858;-72
2022/09/23 04:38:19;;;;;;;50.10;20.70;;;;;;;;;;5040654;28;21030;-73
2022/09/23 04:40:45;;;;;;;41.35;17.05;;;;;;;;;;5040973;28;20147;-71
2022/09/23 04:43:12;;;;;;;44.40;16.70;;;;;;;;;;5039991;28;20039;-72
2022/09/23 04:45:37;;;;;;;39.53;14.90;;;;;;;;;;5040238;28;20081;-71
2022/09/23 04:48:02;;;;;;;47.22;16.63;;;;;;;;;;5041994;28;20829;-72
2022/09/23 04:50:28;;;;;;;43.03;16.70;;;;;;;;;;5022636;28;20032;-74
2022/09/23 04:52:54;;;;;;;52.40;17.63;;;;;;;;;;5039888;28;20032;-73
2022/09/23 04:55:19;;;;;;;42.38;14.65;;;;;;;;;;5040971;28;20028;-72
2022/09/23 04:57:44;;;;;;;30.13;14.80;;;;;;;;;;5039835;28;20028;-72
2022/09/23 05:00:14;;;;;;;43.33;16.13;;;;;;;;;;5040789;28;20056;-73
2022/09/23 05:02:49;;;;;;;35.05;17.83;;;;;;;;;;5039814;28;20235;-72
2022/09/23 05:05:20;;;;;;;32.88;16.65;;;;;;;;;;5041045;28;20108;-73
2022/09/23 05:07:46;;;;;;;36.55;16.52;;;;;;;;;;5055315;28;20032;-73
2022/09/23 05:10:12;;;;;;;35.67;15.80;;;;;;;;;;5039152;28;20028;-72
2022/09/23 05:12:37;;;;;;;34.55;15.77;;;;;;;;;;5005022;28;20117;-72
2022/09/23 05:15:04;;;;;;;30.60;16.42;;;;;;;;;;5040292;28;20086;-71
2022/09/23 05:17:30;;;;;;;42.92;17.05;;;;;;;;;;5039480;28;20876;-72
2022/09/23 05:19:58;;;;;;;43.85;16.38;;;;;;;;;;5039940;28;20036;-73
2022/09/23 05:22:27;;;;;;;50.55;17.52;;;;;;;;;;5041234;28;20032;-73
2022/09/23 05:24:52;;;;;;;70.68;19.27;;;;;;;;;;5054448;28;20032;-71
2022/09/23 05:27:20;;;;;;;43.13;15.98;;;;;;;;;;5037039;28;20043;-72
2022/09/23 05:29:46;;;;;;;49.70;17.38;;;;;;;;;;5020079;28;20490;-73
2022/09/23 05:32:12;;;;;;;45.58;18.25;;;;;;;;;;5049801;28;20737;-72
2022/09/23 05:34:37;;;;;;;46.67;16.88;;;;;;;;;;5038363;28;20155;-74
2022/09/23 05:37:03;;;;;;;38.63;16.05;;;;;;;;;;5028491;28;20091;-73
2022/09/23 05:39:28;;;;;;;33.47;16.63;;;;;;;;;;5030984;28;20039;-72
2022/09/23 05:41:58;;;;;;;33.75;17.20;;;;;;;;;;5038501;28;20036;-73
2022/09/23 05:44:24;;;;;;;27.45;16.08;;;;;;;;;;5038860;28;20071;-72
2022/09/23 05:46:49;;;;;;;29.00;16.08;;;;;;;;;;5031632;28;20033;-75
2022/09/23 05:49:14;;;;;;;25.05;14.70;;;;;;;;;;5037884;28;20032;-73
2022/09/23 05:51:39;;;;;;;29.38;17.13;;;;;;;;;;5038876;28;20123;-73
2022/09/23 05:54:05;;;;;;;36.50;16.23;;;;;;;;;;5031155;28;20037;-73
2022/09/23 05:56:30;;;;;;;27.00;16.50;;;;;;;;;;5039502;28;20043;-73
2022/09/23 05:58:59;;;;;;;36.35;17.58;;;;;;;;;;5038851;28;20039;-73
2022/09/23 06:01:30;;;;;;;28.48;17.23;;;;;;;;;;5038554;28;20833;-72
2022/09/23 06:03:56;;;;;;;32.50;17.27;;;;;;;;;;5039001;28;20040;-71
2022/09/23 06:06:34;;;;;;;28.85;18.20;;;;;;;;;;5039158;28;20033;-72
2022/09/23 06:09:00;;;;;;;32.15;20.88;;;;;;;;;;5051172;28;20139;-72
2022/09/23 06:11:26;;;;;;;29.13;21.15;;;;;;;;;;5039478;28;20040;-72
2022/09/23 06:13:55;;;;;;;30.95;19.52;;;;;;;;;;5024994;28;20854;-69
2022/09/23 06:16:21;;;;;;;34.40;20.15;;;;;;;;;;5039205;28;20128;-71
2022/09/23 06:18:46;;;;;;;29.05;20.30;;;;;;;;;;5038781;28;20037;-71
2022/09/23 06:21:16;;;;;;;38.22;21.95;;;;;;;;;;5036678;28;20028;-73
2022/09/23 06:23:44;;;;;;;33.85;21.50;;;;;;;;;;5037664;28;20125;-70
2022/09/23 06:26:11;;;;;;;38.35;24.27;;;;;;;;;;5038399;28;20044;-71
2022/09/23 06:28:37;;;;;;;37.10;23.08;;;;;;;;;;5036748;28;20125;-72
2022/09/23 06:31:04;;;;;;;44.20;23.23;;;;;;;;;;5038877;28;20777;-72
2022/09/23 06:33:30;;;;;;;37.58;24.05;;;;;;;;;;5037347;28;20028;-72
2022/09/23 06:35:59;;;;;;;39.40;24.00;;;;;;;;;;5037350;28;20040;-71
2022/09/23 06:38:25;;;;;;;45.55;24.52;;;;;;;;;;5037943;28;20857;-72
2022/09/23 06:40:51;;;;;;;45.95;25.90;;;;;;;;;;5038411;28;20028;-72
2022/09/23 06:43:21;;;;;;;40.15;25.67;;;;;;;;;;5020693;28;20040;-73
2022/09/23 06:45:46;;;;;;;45.00;25.45;;;;;;;;;;5053031;28;20028;-72
2022/09/23 06:48:12;;;;;;;42.40;25.63;;;;;;;;;;5029415;28;20136;-71
2022/09/23 06:50:37;;;;;;;38.70;23.77;;;;;;;;;;5000774;28;22390;-72
2022/09/23 06:53:03;;;;;;;40.50;26.17;;;;;;;;;;5035466;28;20213;-71
2022/09/23 06:55:28;;;;;;;47.25;28.50;;;;;;;;;;5033873;28;20035;-70
2022/09/23 06:57:53;;;;;;;49.42;31.50;;;;;;;;;;5031595;28;20053;-72
2022/09/23 07:00:19;;;;;;;56.63;31.75;;;;;;;;;;5033973;28;20063;-71
2022/09/23 07:02:44;;;;;;;55.50;32.63;;;;;;;;;;5034004;28;20353;-72
2022/09/23 07:05:12;;;;;;;58.63;34.33;;;;;;;;;;5033164;28;20056;-71
2022/09/23 07:07:38;;;;;;;60.00;34.42;;;;;;;;;;5034154;28;20251;-72
2022/09/23 07:10:04;;;;;;;56.35;33.90;;;;;;;;;;5034812;28;20526;-72
2022/09/23 07:12:30;;;;;;;58.53;33.70;;;;;;;;;;5016891;28;20125;-72
2022/09/23 07:14:56;;;;;;;53.67;34.92;;;;;;;;;;5030089;28;20802;-73
2022/09/23 07:17:24;;;;;;;63.83;35.72;;;;;;;;;;5038950;28;20056;-73
2022/09/23 07:19:53;;;;;;;54.35;33.20;;;;;;;;;;5036144;28;20064;-71
2022/09/23 07:22:19;;;;;;;56.42;34.95;;;;;;;;;;5029369;28;20777;-72
2022/09/23 07:24:45;;;;;;;58.22;35.35;;;;;;;;;;5038861;28;20358;-72
2022/09/23 07:27:13;;;;;;;54.45;35.15;;;;;;;;;;5037592;28;20185;-72
2022/09/23 07:29:38;;;;;;;49.60;33.05;;;;;;;;;;5036964;28;20537;-71
2022/09/23 07:32:03;;;;;;;49.83;33.33;;;;;;;;;;5024116;28;20059;-72
2022/09/23 07:34:31;;;;;;;48.95;33.20;;;;;;;;;;5037632;28;24005;-73
2022/09/23 07:36:56;;;;;;;49.08;32.40;;;;;;;;;;5025755;28;20036;-73
2022/09/23 07:39:21;;;;;;;43.97;32.50;;;;;;;;;;5033322;28;20063;-73
2022/09/23 07:41:50;;;;;;;48.58;35.17;;;;;;;;;;5039547;28;20159;-73
2022/09/23 07:44:17;;;;;;;55.45;37.45;;;;;;;;;;5040155;28;20040;-73
2022/09/23 07:46:43;;;;;;;60.63;37.53;;;;;;;;;;5026465;28;20087;-72
2022/09/23 07:49:09;;;;;;;60.25;38.80;;;;;;;;;;5039897;28;20159;-71
2022/09/23 07:51:40;;;;;;;62.17;37.88;;;;;;;;;;5051997;28;20687;-72
2022/09/23 07:54:07;;;;;;;56.55;36.40;;;;;;;;;;5040140;28;20056;-72
2022/09/23 07:56:33;;;;;;;56.75;36.17;;;;;;;;;;5038727;28;20127;-65
2022/09/23 07:58:59;;;;;;;49.97;31.38;;;;;;;;;;5054601;27;20234;-64
2022/09/23 08:01:30;;;;;;;42.83;31.23;;;;;;;;;;5009707;28;20037;-64
2022/09/23 08:03:56;;;;;;;39.70;28.05;;;;;;;;;;5055971;28;20291;-65
2022/09/23 08:06:22;;;;;;;42.47;28.58;;;;;;;;;;5015520;28;20037;-65
2022/09/23 08:08:47;;;;;;;39.42;27.63;;;;;;;;;;5040986;28;20117;-65
2022/09/23 08:11:13;;;;;;;37.03;28.02;;;;;;;;;;5024989;28;20040;-63
2022/09/23 08:13:39;;;;;;;38.03;28.48;;;;;;;;;;5053471;27;20071;-65
2022/09/23 08:16:04;;;;;;;38.63;28.17;;;;;;;;;;5041749;28;22335;-65
2022/09/23 08:18:32;;;;;;;35.20;27.83;;;;;;;;;;5039709;28;20036;-65
2022/09/23 08:20:57;;;;;;;45.80;30.77;;;;;;;;;;5041006;28;20776;-65
2022/09/23 08:23:23;;;;;;;44.88;30.23;;;;;;;;;;5040924;28;20111;-66
2022/09/23 08:25:54;;;;;;;49.83;32.10;;;;;;;;;;5039961;28;20131;-65
2022/09/23 08:28:24;;;;;;;45.88;32.88;;;;;;;;;;5016533;28;21188;-65
2022/09/23 08:30:50;;;;;;;46.08;31.90;;;;;;;;;;5024460;28;20048;-65
2022/09/23 08:33:15;;;;;;;49.70;31.33;;;;;;;;;;5035788;28;20488;-65
2022/09/23 08:35:40;;;;;;;46.70;31.85;;;;;;;;;;5036300;28;20104;-65
2022/09/23 08:38:08;;;;;;;51.75;34.85;;;;;;;;;;5037275;28;20305;-65
2022/09/23 08:40:36;;;;;;;54.08;35.38;;;;;;;;;;5030948;28;20993;-65
2022/09/23 08:43:01;;;;;;;46.95;35.60;;;;;;;;;;5008589;28;20783;-65
2022/09/23 08:45:27;;;;;;;56.47;37.13;;;;;;;;;;5039423;28;20059;-65
2022/09/23 08:48:14;;;;;;;53.10;36.53;;;;;;;;;;5039963;28;20036;-66
2022/09/23 08:50:44;;;;;;;53.28;36.15;;;;;;;;;;5039249;28;20036;-65
2022/09/23 08:53:13;;;;;;;51.35;35.25;;;;;;;;;;5038919;28;20036;-66
2022/09/23 08:55:42;;;;;;;52.67;37.25;;;;;;;;;;5040403;28;20821;-66
2022/09/23 08:58:29;;;;;;;45.15;32.90;;;;;;;;;;5039595;28;20028;-64
2022/09/23 09:00:55;;;;;;;41.45;29.73;;;;;;;;;;5039997;28;20049;-66
2022/09/23 09:03:22;;;;;;;44.90;30.15;;;;;;;;;;5040516;28;20043;-66
2022/09/23 09:05:48;;;;;;;38.05;28.50;;;;;;;;;;5040204;28;20573;-65
2022/09/23 09:08:16;;;;;;;39.47;27.30;;;;;;;;;;5021794;28;20056;-65
2022/09/23 09:10:45;;;;;;;39.00;26.13;;;;;;;;;;5038700;28;20032;-64
2022/09/23 09:13:29;;;;;;;43.80;27.38;;;;;;;;;;5013406;28;20756;-65
2022/09/23 09:16:10;;;;;;;42.63;28.70;;;;;;;;;;5036524;28;20036;-66
2022/09/23 09:18:42;;;;;;;40.75;26.67;;;;;;;;;;5036333;28;20033;-67
2022/09/23 09:21:12;;;;;;;36.88;26.08;;;;;;;;;;5034885;28;20035;-65
2022/09/23 09:23:52;;;;;;;41.85;26.85;;;;;;;;;;5036080;28;20054;-65
2022/09/23 09:26:25;;;;;;;38.97;26.67;;;;;;;;;;5037072;28;20027;-66
2022/09/23 09:28:56;;;;;;;39.33;27.58;;;;;;;;;;5037629;28;20036;-65
2022/09/23 09:31:40;;;;;;;41.03;28.90;;;;;;;;;;5037800;28;20041;-65
2022/09/23 09:34:30;;;;;;;38.22;28.08;;;;;;;;;;5035795;28;20040;-65
2022/09/23 09:36:58;;;;;;;43.80;29.00;;;;;;;;;;5024670;28;20886;-65
2022/09/23 09:39:25;;;;;;;45.75;29.55;;;;;;;;;;5033228;28;20325;-65
2022/09/23 09:41:50;;;;;;;39.88;29.70;;;;;;;;;;5035303;28;20865;-64
2022/09/23 09:44:23;;;;;;;44.15;29.92;;;;;;;;;;5032936;28;20047;-65
2022/09/23 09:46:50;;;;;;;44.92;30.88;;;;;;;;;;5050203;28;20044;-66
2022/09/23 09:49:29;;;;;;;51.28;32.67;;;;;;;;;;5028636;28;20096;-64
2022/09/23 09:52:15;;;;;;;46.92;31.25;;;;;;;;;;5028260;28;20044;-65
2022/09/23 09:54:43;;;;;;;46.53;30.50;;;;;;;;;;5016806;28;20040;-65
2022/09/23 09:57:30;;;;;;;47.35;32.03;;;;;;;;;;5037152;28;20849;-65
2022/09/23 09:59:56;;;;;;;48.83;31.85;;;;;;;;;;5033866;28;20128;-65
2022/09/23 10:02:28;;;;;;;46.88;29.77;;;;;;;;;;5035524;28;20036;-67
2022/09/23 10:04:59;;;;;;;47.20;30.33;;;;;;;;;;5052431;28;20982;-65
2022/09/23 10:07:26;;;;;;;47.83;29.02;;;;;;;;;;5054786;28;22304;-64
2022/09/23 10:09:53;;;;;;;42.90;29.13;;;;;;;;;;5038415;28;20037;-65
2022/09/23 10:12:23;;;;;;;39.40;29.27;;;;;;;;;;5053272;28;20040;-65
2022/09/23 10:14:50;;;;;;;43.78;30.00;;;;;;;;;;5036927;28;20803;-65
2022/09/23 10:17:20;;;;;;;45.22;32.33;;;;;;;;;;5022256;28;20032;-64
2022/09/23 10:19:47;;;;;;;51.50;32.80;;;;;;;;;;5036721;28;20055;-64
2022/09/23 10:22:17;;;;;;;50.35;31.30;;;;;;;;;;5038344;28;20036;-64
2022/09/23 10:24:46;;;;;;;52.13;32.92;;;;;;;;;;5037820;28;20551;-65
2022/09/23 10:27:12;;;;;;;47.70;30.60;;;;;;;;;;5036788;28;20596;-65
2022/09/23 10:29:38;;;;;;;47.08;30.00;;;;;;;;;;5039429;28;20029;-65
2022/09/23 10:32:22;;;;;;;47.35;30.10;;;;;;;;;;5037709;28;20048;-65
2022/09/23 10:34:52;;;;;;;52.08;30.77;;;;;;;;;;5038440;28;20032;-64
2022/09/23 10:37:22;;;;;;;46.33;29.92;;;;;;;;;;5052019;28;20065;-65
2022/09/23 10:48:17;;;;;;;51.67;28.63;;;;;;;;;;5034013;28;20547;-65
2022/09/23 10:50:47;;;;;;;42.80;26.00;;;;;;;;;;5034341;28;20520;-64
2022/09/23 10:53:18;;;;;;;44.38;26.50;;;;;;;;;;5034320;28;20039;-66
2022/09/23 10:56:02;;;;;;;55.92;27.25;;;;;;;;;;5032219;28;20410;-65
2022/09/23 10:58:30;;;;;;;50.10;26.60;;;;;;;;;;5034792;28;20213;-65
2022/09/23 11:01:06;;;;;;;43.60;25.45;;;;;;;;;;5036906;28;20049;-64
2022/09/23 11:03:48;;;;;;;40.72;24.98;;;;;;;;;;5035697;28;20940;-65
2022/09/23 11:06:13;;;;;;;;;;;;;;;;;;5036376;28;20171;-64
2022/09/23 11:08:57;;;;;;;50.45;24.90;;;;;;;;;;5036479;28;20661;-64
2022/09/23 11:11:41;;;;;;;61.92;28.10;;;;;;;;;;5035704;28;20044;-64
2022/09/23 11:14:42;;;;;;;50.85;26.00;;;;;;;;;;5035043;28;20033;-64
2022/09/23 11:17:16;;;;;;;47.13;25.67;;;;;;;;;;4981376;28;20080;-65
2022/09/23 11:20:00;;;;;;;42.22;23.08;;;;;;;;;;5027424;28;20067;-64
2022/09/23 11:22:39;;;;;;;36.53;22.08;;;;;;;;;;5036790;28;20113;-65
2022/09/23 11:25:20;;;;;;;34.38;22.98;;;;;;;;;;5018222;28;20032;-64
2022/09/23 11:28:06;;;;;;;35.75;23.15;;;;;;;;;;5028569;28;20044;-64
2022/09/23 11:30:52;;;;;;;34.08;21.75;;;;;;;;;;5010875;28;20036;-64
2022/09/23 11:33:25;;;;;;;31.85;20.02;;;;;;;;;;4987515;28;20930;-64
2022/09/23 11:35:55;;;;;;;25.35;18.88;;;;;;;;;;5036740;28;20093;-65
2022/09/23 11:38:26;;;;;;;25.02;18.77;;;;;;;;;;5036470;28;20055;-65
2022/09/23 11:40:58;;;;;;;21.83;17.05;;;;;;;;;;5036781;28;20040;-65
2022/09/23 11:43:24;;;;;;;20.63;15.63;;;;;;;;;;5036080;28;20039;-64
2022/09/23 11:46:02;;;;;;;20.35;14.68;;;;;;;;;;5035744;28;20041;-64
2022/09/23 11:48:36;;;;;;;20.75;14.73;;;;;;;;;;5036878;28;20056;-64
2022/09/23 11:51:09;;;;;;;17.55;13.77;;;;;;;;;;5049683;28;20051;-64
2022/09/23 11:53:41;;;;;;;18.73;11.80;;;;;;;;;;5035760;28;20473;-64
2022/09/23 11:56:07;;;;;;;20.80;12.80;;;;;;;;;;5034834;28;20163;-64
2022/09/23 11:58:37;;;;;;;18.08;10.90;;;;;;;;;;5035936;28;20028;-64
2022/09/23 12:01:12;;;;;;;18.65;10.20;;;;;;;;;;5024501;28;20033;-64
2022/09/23 12:03:46;;;;;;;16.90;10.55;;;;;;;;;;5033363;28;20028;-64
2022/09/23 12:06:18;;;;;;;15.27;8.52;;;;;;;;;;5036675;28;20032;-65
2022/09/23 12:08:48;;;;;;;14.50;8.32;;;;;;;;;;5039720;28;20039;-63
2022/09/23 12:11:14;;;;;;;18.67;9.32;;;;;;;;;;5039784;28;20037;-66
2022/09/23 12:13:39;;;;;;;14.05;7.72;;;;;;;;;;5040664;28;20052;-64
2022/09/23 12:16:08;;;;;;;9.93;6.93;;;;;;;;;;5039416;28;20911;-65
2022/09/23 12:18:46;;;;;;;13.73;7.57;;;;;;;;;;5038472;28;20040;-65
2022/09/23 12:21:18;;;;;;;16.05;7.47;;;;;;;;;;5040016;28;20029;-62
2022/09/23 12:23:49;;;;;;;10.45;7.05;;;;;;;;;;5039502;28;20028;-63
2022/09/23 12:26:16;;;;;;;;;;;;;;;;;;5039355;28;20106;-66
2022/09/23 12:28:44;;;;;;;11.93;6.85;;;;;;;;;;5038323;28;19963;-64
2022/09/23 12:31:20;;;;;;;13.77;6.50;;;;;;;;;;5039539;28;20158;-66
2022/09/23 12:33:52;;;;;;;13.00;8.32;;;;;;;;;;5038342;28;20024;-64
2022/09/23 12:36:25;;;;;;;13.30;7.07;;;;;;;;;;5038259;28;20568;-64
2022/09/23 12:39:09;;;;;;;13.27;7.32;;;;;;;;;;5038310;28;20027;-64
2022/09/23 12:41:37;;;;;;;14.23;7.45;;;;;;;;;;5036401;28;20805;-65
2022/09/23 12:44:14;;;;;;;12.43;7.75;;;;;;;;;;5034065;28;20263;-64
2022/09/23 12:46:43;;;;;;;14.07;8.40;;;;;;;;;;5029867;28;20837;-66
2022/09/23 12:49:34;;;;;;;16.55;8.45;;;;;;;;;;5022667;28;20058;-65
2022/09/23 12:52:12;;;;;;;11.57;7.90;;;;;;;;;;5015198;28;20380;-64
2022/09/23 12:54:38;;;;;;;10.82;7.82;;;;;;;;;;5034031;28;20144;-65
2022/09/23 12:57:08;;;;;;;13.35;9.40;;;;;;;;;;5029501;28;20040;-66
2022/09/23 12:59:52;;;;;;;18.55;9.70;;;;;;;;;;5032645;28;20505;-65
2022/09/23 13:02:21;;;;;;;16.30;9.60;;;;;;;;;;5033009;28;20470;-65
2022/09/23 13:07:41;;;;;;;11.13;7.80;;;;;;;;;;5032114;28;20050;-66
2022/09/23 13:10:31;;;;;;;12.82;7.00;;;;;;;;;;5013839;28;20073;-65
2022/09/23 13:12:57;;;;;;;12.65;7.90;;;;;;;;;;5023913;28;20048;-64
2022/09/23 13:15:31;;;;;;;10.43;7.63;;;;;;;;;;5033436;28;20184;-65
2022/09/23 13:18:16;;;;;;;11.60;7.95;;;;;;;;;;5031837;28;20032;-64
2022/09/23 13:20:41;;;;;;;9.68;7.72;;;;;;;;;;5032622;28;20044;-64
2022/09/23 13:23:10;;;;;;;13.57;7.85;;;;;;;;;;5010680;28;20029;-65
2022/09/23 13:25:41;;;;;;;11.25;6.85;;;;;;;;;;5033118;28;20041;-65
2022/09/23 13:28:26;;;;;;;10.70;6.72;;;;;;;;;;5032558;28;20040;-65
2022/09/23 13:30:54;;;;;;;10.95;6.75;;;;;;;;;;5029689;28;20418;-65
2022/09/23 13:33:25;;;;;;;13.63;7.70;;;;;;;;;;5031554;28;20761;-65
2022/09/23 13:35:51;;;;;;;13.10;7.30;;;;;;;;;;5031629;28;20086;-67
2022/09/23 13:38:24;;;;;;;13.80;7.40;;;;;;;;;;5031598;28;20623;-66
2022/09/23 13:40:52;;;;;;;15.45;8.20;;;;;;;;;;4998243;28;20041;-64
2022/09/23 13:43:32;;;;;;;12.30;8.48;;;;;;;;;;5008839;28;20482;-65
2022/09/23 13:45:59;;;;;;;17.60;9.00;;;;;;;;;;4993809;28;20478;-66
2022/09/23 13:48:27;;;;;;;14.15;8.48;;;;;;;;;;4993223;28;20114;-66
2022/09/23 13:50:55;;;;;;;18.60;8.50;;;;;;;;;;4996087;28;20048;-65
2022/09/23 13:53:28;;;;;;;14.50;9.65;;;;;;;;;;5012578;28;20029;-66
2022/09/23 13:56:03;;;;;;;15.88;10.98;;;;;;;;;;4996995;28;20824;-66
2022/09/23 13:58:29;;;;;;;20.10;12.65;;;;;;;;;;5012424;28;20159;-67
2022/09/23 14:00:54;;;;;;;28.98;13.75;;;;;;;;;;4999456;28;20860;-66
2022/09/23 14:03:23;;;;;;;22.02;14.15;;;;;;;;;;4997240;28;20037;-65
2022/09/23 14:05:51;;;;;;;20.77;15.00;;;;;;;;;;4997287;28;20025;-65
2022/09/23 14:08:17;;;;;;;25.40;16.85;;;;;;;;;;4996286;28;20037;-66
2022/09/23 14:10:45;;;;;;;26.55;17.40;;;;;;;;;;4996740;28;20060;-67
2022/09/23 14:13:15;;;;;;;25.45;17.10;;;;;;;;;;4989217;28;20041;-66
2022/09/23 14:15:41;;;;;;;20.55;15.73;;;;;;;;;;4998349;28;20058;-69
2022/09/23 14:18:07;;;;;;;35.97;16.05;;;;;;;;;;5007363;28;20029;-73
2022/09/23 14:20:43;;;;;;;20.92;10.40;;;;;;;;;;4999548;28;20804;-72
2022/09/23 14:23:13;;;;;;;17.15;11.25;;;;;;;;;;4998439;28;20037;-72
2022/09/23 14:25:39;;;;;;;23.15;12.38;;;;;;;;;;4990440;28;20044;-72
2022/09/23 14:28:07;;;;;;;20.48;13.50;;;;;;;;;;5010353;28;20036;-73
2022/09/23 14:30:33;;;;;;;25.52;16.45;;;;;;;;;;4996825;28;20734;-73
2022/09/23 14:32:58;;;;;;;19.38;15.20;;;;;;;;;;4996875;28;20083;-73
2022/09/23 14:35:26;;;;;;;30.30;17.52;;;;;;;;;;4998352;28;20498;-75
2022/09/23 14:40:49;;;;;;;32.17;21.05;;;;;;;;;;5020052;28;22359;-72
2022/09/23 14:43:20;;;;;;;28.23;19.95;;;;;;;;;;5036630;28;20052;-71
2022/09/23 14:45:49;;;;;;;33.45;21.85;;;;;;;;;;5036772;28;20044;-70
2022/09/23 14:48:25;;;;;;;29.02;24.23;;;;;;;;;;5035279;28;20139;-71
2022/09/23 14:50:54;;;;;;;35.40;25.25;;;;;;;;;;5006914;28;20059;-73
2022/09/23 14:53:23;;;;;;;43.22;27.30;;;;;;;;;;5038099;28;22389;-71